createdAt,value
2023-04-06T00:04:00.794Z,6.20
2023-04-06T00:09:08.551Z,5.55
2023-04-06T00:14:11.505Z,9.73
2023-04-06T00:19:14.006Z,6.60
2023-04-06T00:24:21.735Z,7.07
2023-04-06T00:29:36.673Z,7.60
2023-04-06T00:34:41.048Z,8.18
2023-04-06T00:39:43.586Z,7.22
2023-04-06T00:44:45.962Z,7.25
2023-04-06T00:49:49.802Z,6.25
2023-04-06T00:54:56.369Z,6.80
2023-04-06T00:59:59.025Z,7.22
2023-04-06T01:05:02.643Z,6.72
2023-04-06T01:10:29.666Z,7.63
2023-04-06T01:15:59.004Z,7.40
2023-04-06T01:21:26.379Z,6.78
2023-04-06T01:27:18.219Z,6.22
2023-04-06T01:32:46.066Z,8.38
2023-04-06T01:38:07.661Z,6.65
2023-04-06T01:43:14.546Z,7.32
2023-04-06T01:48:37.809Z,6.80
2023-04-06T01:53:57.437Z,7.32
2023-04-06T01:59:16.781Z,6.55
2023-04-06T02:09:59.506Z,5.45
2023-04-06T02:15:20.468Z,6.47
2023-04-06T02:20:29.741Z,7.72
2023-04-06T02:25:38.134Z,6.95
2023-04-06T02:30:43.123Z,7.30
2023-04-06T02:35:47.430Z,7.65
2023-04-06T02:41:10.741Z,9.55
2023-04-06T02:46:14.860Z,7.57
2023-04-06T02:51:26.810Z,6.95
2023-04-06T02:57:11.715Z,7.38
2023-04-06T03:02:23.814Z,6.82
2023-04-06T03:07:27.234Z,8.20
2023-04-06T03:12:29.776Z,7.30
2023-04-06T03:18:04.586Z,6.70
2023-04-06T03:23:17.397Z,6.80
2023-04-06T03:28:27.501Z,7.80
2023-04-06T03:33:35.794Z,6.38
2023-04-06T03:38:39.648Z,5.57
2023-04-06T03:43:48.859Z,7.82
2023-04-06T03:48:51.108Z,7.10
2023-04-06T03:53:55.789Z,4.82
2023-04-06T03:59:07.636Z,2.50
2023-04-06T04:04:10.902Z,2.92
2023-04-06T04:09:13.242Z,1.40
2023-04-06T04:14:15.662Z,1.33
2023-04-06T04:19:17.850Z,1.30
2023-04-06T04:24:20.035Z,1.83
2023-04-06T04:29:23.736Z,1.00
2023-04-06T04:34:28.125Z,0.70
2023-04-06T04:39:31.073Z,0.80
2023-04-06T04:44:38.626Z,0.93
2023-04-06T04:49:41.502Z,1.00
2023-04-06T04:54:43.983Z,1.30
2023-04-06T04:59:52.043Z,1.70
2023-04-06T05:04:55.043Z,1.02
2023-04-06T05:10:00.739Z,1.02
2023-04-06T05:15:07.798Z,1.20
2023-04-06T05:20:10.842Z,1.23
2023-04-06T05:25:21.049Z,2.25
2023-04-06T05:30:26.972Z,1.90
2023-04-06T05:35:29.324Z,2.83
2023-04-06T05:40:36.611Z,2.75
2023-04-06T05:45:38.866Z,1.48
2023-04-06T05:50:42.496Z,2.13
2023-04-06T05:55:48.303Z,3.45
2023-04-06T06:01:01.149Z,2.70
2023-04-06T06:06:11.783Z,4.28
2023-04-06T06:11:34.084Z,6.18
2023-04-06T06:16:38.452Z,2.92
2023-04-06T06:21:42.376Z,1.40
2023-04-06T06:26:44.695Z,2.22
2023-04-06T06:31:49.122Z,1.90
2023-04-06T06:36:54.831Z,2.70
2023-04-06T06:41:57.589Z,2.00
2023-04-06T06:47:19.200Z,2.60
2023-04-06T06:52:21.458Z,2.97
2023-04-06T06:57:23.684Z,1.75
2023-04-06T07:02:26.695Z,3.05
2023-04-06T07:07:29.134Z,3.25
2023-04-06T07:12:31.497Z,3.03
2023-04-06T07:17:33.731Z,3.65
2023-04-06T07:22:36.559Z,3.65
2023-04-06T07:27:39.290Z,2.45
2023-04-06T07:32:41.906Z,2.25
2023-04-06T07:37:45.034Z,3.05
2023-04-06T07:42:47.792Z,1.88
2023-04-06T07:47:50.930Z,5.68
2023-04-06T07:52:53.253Z,2.40
2023-04-06T07:57:56.033Z,2.58
2023-04-06T08:02:58.255Z,2.90
2023-04-06T08:08:00.782Z,2.72
2023-04-06T08:13:03.357Z,4.53
2023-04-06T08:18:06.437Z,2.15
2023-04-06T08:23:10.720Z,3.28
2023-04-06T08:28:13.034Z,3.92
2023-04-06T08:33:15.392Z,3.65
2023-04-06T08:38:17.594Z,4.80
2023-04-06T08:43:23.894Z,3.28
2023-04-06T08:48:26.808Z,2.85
2023-04-06T08:53:29.262Z,3.33
2023-04-06T08:58:38.641Z,2.90
2023-04-06T09:03:42.292Z,3.35
2023-04-06T09:08:44.622Z,4.18
2023-04-06T09:13:55.446Z,2.47
2023-04-06T09:19:06.045Z,1.88
2023-04-06T09:24:12.363Z,2.28
2023-04-06T09:29:25.648Z,2.08
2023-04-06T09:34:28.031Z,1.70
2023-04-06T09:39:37.121Z,0.98
2023-04-06T09:44:39.332Z,1.27
2023-04-06T09:49:41.824Z,2.03
2023-04-06T09:54:46.212Z,2.63
2023-04-06T10:00:13.707Z,1.80
2023-04-06T10:05:37.959Z,1.95
2023-04-06T10:10:40.662Z,1.30
2023-04-06T10:15:44.482Z,1.55
2023-04-06T10:21:11.318Z,0.85
2023-04-06T10:26:18.357Z,1.65
2023-04-06T10:31:28.564Z,1.58
2023-04-06T10:36:35.221Z,1.13
2023-04-06T10:41:47.144Z,1.90
2023-04-06T10:47:04.035Z,1.65
2023-04-06T10:52:07.519Z,4.38
2023-04-06T10:57:09.873Z,1.60
2023-04-06T11:02:21.855Z,2.08
2023-04-06T11:07:27.786Z,1.92
2023-04-06T11:12:31.602Z,2.67
2023-04-06T11:17:36.974Z,1.60
2023-04-06T11:22:52.401Z,3.67
2023-04-06T11:27:55.691Z,3.75
2023-04-06T11:33:03.574Z,2.13
2023-04-06T11:38:06.732Z,3.42
2023-04-06T11:43:12.639Z,2.70
2023-04-06T11:48:23.768Z,2.88
2023-04-06T11:53:28.691Z,3.67
2023-04-06T11:58:31.343Z,2.20
2023-04-06T12:03:33.714Z,2.10
2023-04-06T12:08:35.984Z,2.78
2023-04-06T12:13:38.587Z,2.03
2023-04-06T12:18:41.054Z,1.90
2023-04-06T12:23:43.484Z,2.10
2023-04-06T12:28:45.922Z,2.28
2023-04-06T12:33:49.146Z,1.45
2023-04-06T12:38:52.357Z,1.73
2023-04-06T12:43:54.560Z,2.15
2023-04-06T12:48:57.440Z,0.90
2023-04-06T12:53:59.638Z,0.50
2023-04-06T12:59:02.162Z,1.35
2023-04-06T13:04:04.476Z,0.98
2023-04-06T13:09:06.825Z,0.70
2023-04-06T13:14:09.160Z,1.40
2023-04-06T13:19:11.881Z,0.80
2023-04-06T13:24:16.543Z,0.95
2023-04-06T13:29:19.887Z,0.73
2023-04-06T13:34:22.241Z,0.68
2023-04-06T13:39:24.504Z,0.30
2023-04-06T13:44:27.123Z,0.60
2023-04-06T13:49:29.308Z,1.77
2023-04-06T13:54:31.423Z,0.70
2023-04-06T13:59:37.157Z,3.58
2023-04-06T14:04:39.277Z,1.15
2023-04-06T14:09:41.476Z,0.77
2023-04-06T14:14:43.558Z,1.40
2023-04-06T14:19:46.957Z,1.10
2023-04-06T14:24:50.031Z,1.08
2023-04-06T14:29:52.181Z,1.40
2023-04-06T14:34:54.432Z,1.67
2023-04-06T14:39:56.586Z,1.58
2023-04-06T14:44:58.925Z,1.98
2023-04-06T14:50:00.990Z,1.00
2023-04-06T14:55:03.415Z,1.73
2023-04-06T15:00:08.896Z,0.73
2023-04-06T15:05:11.981Z,0.80
2023-04-06T15:10:14.099Z,1.77
2023-04-06T15:15:17.247Z,1.27
2023-04-06T15:20:19.418Z,0.93
2023-04-06T15:25:26.549Z,2.00
2023-04-06T15:30:28.667Z,0.82
2023-04-06T15:35:31.049Z,1.20
2023-04-06T15:40:42.733Z,0.68
2023-04-06T15:45:45.850Z,1.25
2023-04-06T15:50:50.530Z,0.85
2023-04-06T15:56:08.498Z,0.57
2023-04-06T16:01:18.291Z,0.73
2023-04-06T16:06:20.430Z,0.60
2023-04-06T16:11:22.710Z,1.20
2023-04-06T16:16:25.118Z,0.80
2023-04-06T16:21:28.038Z,0.98
2023-04-06T16:26:30.287Z,1.02
2023-04-06T16:31:33.232Z,0.68
2023-04-06T16:36:36.087Z,0.80
2023-04-06T16:41:41.217Z,0.90
2023-04-06T16:46:44.345Z,1.70
2023-04-06T16:51:49.896Z,0.98
2023-04-06T16:56:53.383Z,1.02
2023-04-06T17:01:55.684Z,2.78
2023-04-06T17:06:58.935Z,1.75
2023-04-06T17:12:02.148Z,0.75
2023-04-06T17:17:05.689Z,1.50
2023-04-06T17:22:07.848Z,1.33
2023-04-06T17:27:10.061Z,1.20
2023-04-06T17:32:19.047Z,1.35
2023-04-06T17:37:22.890Z,1.17
2023-04-06T17:42:26.977Z,1.48
2023-04-06T17:47:38.942Z,1.10
2023-04-06T17:52:42.467Z,2.33
2023-04-06T17:57:46.337Z,1.65
2023-04-06T18:02:48.733Z,1.52
2023-04-06T18:07:52.734Z,3.28
2023-04-06T18:12:54.966Z,1.15
2023-04-06T18:17:59.361Z,1.30
2023-04-06T18:23:01.910Z,0.93
2023-04-06T18:28:04.118Z,1.40
2023-04-06T18:33:08.035Z,1.98
2023-04-06T18:38:10.596Z,1.17
2023-04-06T18:43:15.906Z,1.60
2023-04-06T18:48:22.089Z,1.40
2023-04-06T18:53:24.469Z,0.88
2023-04-06T18:58:27.242Z,2.33
2023-04-06T19:03:29.688Z,2.33
2023-04-06T19:08:31.973Z,0.75
2023-04-06T19:13:34.565Z,1.92
2023-04-06T19:18:42.853Z,2.47
2023-04-06T19:23:47.927Z,2.05
2023-04-06T19:28:50.824Z,1.77
2023-04-06T19:33:56.269Z,1.60
2023-04-06T19:38:59.858Z,1.35
2023-04-06T19:44:03.785Z,1.55
2023-04-06T19:49:07.322Z,1.30
2023-04-06T19:54:09.834Z,2.40
2023-04-06T19:59:12.094Z,1.85
2023-04-06T20:04:14.658Z,1.23
2023-04-06T20:14:42.782Z,2.08
2023-04-06T20:19:44.929Z,2.00
2023-04-06T20:24:47.149Z,2.50
2023-04-06T20:29:50.741Z,2.15
2023-04-06T20:34:53.594Z,3.55
2023-04-06T20:39:55.774Z,2.00
2023-04-06T20:44:58.177Z,2.30
2023-04-06T20:50:02.969Z,1.50
2023-04-06T20:55:06.115Z,1.95
2023-04-06T21:00:10.678Z,1.80
2023-04-06T21:05:12.965Z,2.30
2023-04-06T21:10:15.562Z,1.55
2023-04-06T21:15:17.853Z,2.05
2023-04-06T21:20:21.213Z,1.10
2023-04-06T21:25:23.760Z,1.35
2023-04-06T21:30:37.038Z,2.05
2023-04-06T21:35:40.874Z,3.10
2023-04-06T21:40:49.479Z,3.28
2023-04-06T21:45:56.165Z,2.92
2023-04-06T21:51:00.595Z,2.53
2023-04-06T21:56:02.999Z,2.42
2023-04-06T22:01:10.993Z,4.28
2023-04-06T22:06:13.304Z,3.05
2023-04-06T22:11:15.817Z,1.95
2023-04-06T22:16:20.005Z,2.42
2023-04-06T22:21:23.701Z,2.55
2023-04-06T22:26:28.008Z,3.50
2023-04-06T22:31:30.481Z,3.47
2023-04-06T22:36:33.926Z,1.83
2023-04-06T22:41:40.872Z,2.78
2023-04-06T22:46:43.079Z,2.88
2023-04-06T22:51:45.471Z,2.83
2023-04-06T22:56:47.706Z,2.85
2023-04-06T23:01:50.220Z,2.85
2023-04-06T23:06:52.365Z,3.47
2023-04-06T23:11:54.635Z,2.85
2023-04-06T23:17:03.181Z,2.28
2023-04-06T23:22:06.841Z,2.90
2023-04-06T23:27:12.125Z,3.78
2023-04-06T23:32:17.838Z,2.37
2023-04-06T23:37:20.491Z,1.67
2023-04-06T23:42:29.117Z,1.77
2023-04-06T23:47:32.548Z,1.73
2023-04-06T23:52:47.728Z,2.65
2023-04-06T23:57:54.859Z,1.98
